Airfield :
LOGIN :

Register | Disclaimer

   EN    FR    IT 

 










Legend :    VFR   Marginal VFR   IFR   Intensive IFR   Very Intensive IFR
Visi :
Ceiling :
>= 8 km
>= 3000ft
5 to 8 km
1000 to 3000 ft
1500m to 5 km
500 to 1000 ft
800 to 1500m
200 to 500 ft
< 800m
< 200 ft
Symbols :   Thunderstorms  Fog  Heavy snow  Heavy precipitations  Wind > 20 kt
SIGMETs :     Misc.  Thunderstorms  Icing  Turbulence  Mountain Waves  Volcanic Ashes






- Airport Elevation : 131 ft
- IATA code : TLL


EETN - Talinn

CURRENT METAR :
  • 070950Z 16009KT 120V210 CAVOK 19/03 Q1011 NOSIG

EXPIRED METARs :
  • 070920Z 19006KT CAVOK 19/03 Q1012 NOSIG
  • 070850Z 20009KT 160V260 CAVOK 19/03 Q1012 NOSIG
  • 070820Z 19006KT CAVOK 18/02 Q1011 NOSIG
  • 070750Z 22010KT 180V260 CAVOK 18/04 Q1011 NOSIG
  • 070720Z 22011KT CAVOK 17/05 Q1011 NOSIG

TAF TAF EETN
Valid from the 07 at 06:00 until the 08 at 06:00 UTC


070510Z 0706/0806 19010KT CAVOK
TEMPO 0710/0715 SCT030CB
TEMPO 0716/0721 4000 SHRA SCT020CB BKN040
BECMG 0716/0718 VRB02KT
PROB30
TEMPO 0718/0721 TSRA
PROB40
TEMPO 0802/0805 2000 BR



MET'MAP, your aeronautical weather chart ! - Copyright ORBIFLY December 2007 - Disclaimer

ORBIFLY MET'MAP TEAM :

Programming & Development : Alexandra Zaïnal
Concept & original design : Baudouin d'Aumeries
Assistance for programming : Marc-Olivier Méhu
Technical & hardware support : Manuel Goepfert

Contact : metmap@orbifly.com




SOURCES & CREDITS :

   NOAA